Terminal Aerodrome Forecast
Issued by NWS

Home | Current Version | Previous Version | Graphics & Text | Print | Product List | Glossary On
Versions: 1 2 3 4 5 6 7 8 9 10 11 12 13 14 15
512
FTUS43 KBIS 161734
TAFMOT
TAF
KMOT 161734Z 1618/1718 25016G24KT P6SM FEW250
     FM170000 25006KT P6SM SKC
     FM171100 23009KT P6SM SKC WS020/28030KT
     FM171500 23012KT P6SM SKC=

USA.gov is the U.S. government's official web portal to all federal, state and local government web resources and services.